Buoy 51940

sailwx.info

Track history (hours):
 
Tides and Currents Weather Stations Pressure Air Temp Water Temp Dewpoint Dewpoint Depression Visibility Wind Speed Wind Dir Waves Ship Positions

Drifting buoy 51940

Last reported at 2014-Aug-31 03:15 UTC. Time now 2014-Aug-31 04:33 UTC.
Position N 33°39' E 168°29'.

Water temperature 27.3 ° C

Date/timePositionNaut miles runAvg speedWind from/ knotsBaromVisibWave heightAir tempDewpointWater temp
2014-Aug-31 03:15N 33°39' E 168°29'4 1.7 27.3
2014-Aug-31 00:55N 33°39' E 168°24'0 0.0 27.0
2014-Aug-30 22:41N 33°39' E 168°24'3 3.1 26.7
2014-Aug-30 21:49N 33°39' E 168°21'0 0.0 26.6
2014-Aug-30 18:17N 33°39' E 168°21'1 1.9 26.4
2014-Aug-30 17:40N 33°39' E 168°19'1 0.8 26.4
2014-Aug-30 15:54N 33°38' E 168°18'1 0.6 26.5
2014-Aug-30 13:38N 33°38' E 168°16'1 0.6 26.5
2014-Aug-30 11:05N 33°37' E 168°14'0 0.5 26.6
2014-Aug-30 10:20N 33°37' E 168°14'1 6.2 26.6
2014-Aug-30 10:14N 33°37' E 168°13'0 0.0 26.6
2014-Aug-30 09:27N 33°37' E 168°13'3 0.5 26.7
2014-Aug-30 03:56N 33°37' E 168°10'0 0.0 26.8
2014-Aug-30 03:27N 33°37' E 168°10'0 0.0 26.8
2014-Aug-30 02:51N 33°37' E 168°10'370.0 26.8
2014-Aug-30 02:48N 33°37' E 168°06'0 0.0 26.8
2014-Aug-30 01:07N 33°37' E 168°06'4 1.6 26.7
2014-Aug-29 22:59N 33°36' E 168°02'0 0.0 26.6
2014-Aug-29 18:47N 33°36' E 168°02'3 8.9 26.4
2014-Aug-29 18:25N 33°34' E 167°58'0 0.0 26.4
2014-Aug-29 17:50N 33°34' E 167°58'0 0.0 26.4
2014-Aug-29 17:05N 33°34' E 167°58'0 0.2
2014-Aug-29 16:07N 33°34' E 167°59'0 0.0 26.4
2014-Aug-29 15:32N 33°34' E 167°59'1 0.6 26.4
2014-Aug-29 13:50N 33°33' E 167°58'319.3 26.4
2014-Aug-29 13:42N 33°32' E 167°55'0 0.0 26.4
2014-Aug-29 10:34N 33°32' E 167°55'0 0.1
2014-Aug-29 09:49N 33°32' E 167°55'2 0.9 26.5
2014-Aug-29 08:05N 33°32' E 167°53'1 0.5 26.5
2014-Aug-29 05:20N 33°31' E 167°52'0 0.0 26.6
2014-Aug-29 04:20N 33°31' E 167°52'135.0 26.6
2014-Aug-29 04:19N 33°32' E 167°52'0 0.0 26.6
2014-Aug-29 03:37N 33°32' E 167°52'0 0.0 26.6
2014-Aug-29 03:03N 33°32' E 167°52'111.7 26.6
2014-Aug-29 02:58N 33°31' E 167°51'0 0.0 26.6
2014-Aug-29 01:21N 33°31' E 167°51'231.0
2014-Aug-29 01:18N 33°31' E 167°49'0 0.0 26.5
2014-Aug-28 23:23N 33°31' E 167°49'5 1.0 26.4
2014-Aug-28 18:51N 33°30' E 167°43'0 0.0 26.2
2014-Aug-28 18:03N 33°30' E 167°43'1 0.7 26.2
2014-Aug-28 16:19N 33°29' E 167°42'1 0.9 26.3
2014-Aug-28 15:43N 33°29' E 167°42'1 0.5 26.3
2014-Aug-28 14:00N 33°28' E 167°42'1 0.3 26.3
2014-Aug-28 10:08N 33°27' E 167°42'2 1.5 26.3
2014-Aug-28 08:29N 33°27' E 167°39'1 0.6 26.3
2014-Aug-28 06:28N 33°27' E 167°37'0 0.0 26.3
2014-Aug-28 06:22N 33°27' E 167°37'0 0.0 26.3
2014-Aug-28 05:32N 33°27' E 167°37'0 0.0 26.3
2014-Aug-28 04:47N 33°27' E 167°37'1 1.2 26.4
2014-Aug-28 03:47N 33°28' E 167°36'3 5.4 26.3
2014-Aug-28 03:11N 33°26' E 167°32'0 0.0 26.4
2014-Aug-28 01:28N 33°26' E 167°32'3 1.7 26.3
2014-Aug-27 23:41N 33°25' E 167°29'0 0.0 26.1
2014-Aug-27 22:50N 33°25' E 167°29'0 0.0 26.0
2014-Aug-27 21:58N 33°25' E 167°29'0 0.0 25.9
2014-Aug-27 21:08N 33°25' E 167°29'1 0.3 25.9
2014-Aug-27 18:14N 33°24' E 167°28'113.4 25.8
2014-Aug-27 18:11N 33°24' E 167°28'0 0.0 25.8
2014-Aug-27 16:30N 33°24' E 167°28'1 1.6 25.8
2014-Aug-27 15:50N 33°24' E 167°27'0 0.0
2014-Aug-27 14:10N 33°24' E 167°27'2 0.5 25.8
2014-Aug-27 10:27N 33°23' E 167°25'1 1.0 25.8
2014-Aug-27 09:41N 33°22' E 167°24'1 1.8 25.8
2014-Aug-27 08:50N 33°22' E 167°22'1 0.3 25.8
2014-Aug-27 06:49N 33°21' E 167°22'2 1.5 25.8
2014-Aug-27 05:41N 33°21' E 167°19'0 0.0 25.8
2014-Aug-27 04:05N 33°21' E 167°19'0 0.7 25.8
2014-Aug-27 03:23N 33°21' E 167°19'2 1.0 25.8
2014-Aug-27 01:44N 33°21' E 167°17'247.7
2014-Aug-27 01:41N 33°19' E 167°15'2 0.4 25.8
2014-Aug-26 21:30N 33°18' E 167°14'2 0.7 25.5
2014-Aug-26 18:41N 33°16' E 167°12'1 4.2 25.4
2014-Aug-26 18:22N 33°15' E 167°12'0 0.0 25.3
2014-Aug-26 17:05N 33°15' E 167°12'0 0.0 25.3
2014-Aug-26 16:41N 33°15' E 167°12'1 6.2 25.4
2014-Aug-26 16:35N 33°14' E 167°12'0 0.0
2014-Aug-26 16:05N 33°14' E 167°12'0 0.0 25.4
2014-Aug-26 14:20N 33°14' E 167°12'1 0.3 25.4
2014-Aug-26 10:47N 33°14' E 167°11'1 0.8 25.4
2014-Aug-26 10:04N 33°13' E 167°10'117.8 25.4
2014-Aug-26 10:00N 33°12' E 167°10'0 0.0 25.4
2014-Aug-26 09:10N 33°12' E 167°10'4 0.8 25.5
2014-Aug-26 04:11N 33°09' E 167°07'0 0.0 25.7
2014-Aug-26 03:54N 33°09' E 167°07'0 0.0 25.7
2014-Aug-26 01:56N 33°09' E 167°07'222.3 25.7
2014-Aug-26 01:51N 33°07' E 167°07'1 0.3 25.7
2014-Aug-25 22:43N 33°06' E 167°08'1 1.2 25.6
2014-Aug-25 21:54N 33°06' E 167°08'229.4 25.5
2014-Aug-25 21:50N 33°04' E 167°09'0 0.0 25.5
2014-Aug-25 19:16N 33°04' E 167°09'1 1.1 25.5
2014-Aug-25 18:25N 33°03' E 167°10'0 0.0 25.5
2014-Aug-25 17:34N 33°03' E 167°10'1 1.0 25.5
2014-Aug-25 16:12N 33°03' E 167°12'0 0.0 25.5
2014-Aug-25 11:08N 33°03' E 167°12'0 0.3 25.5
2014-Aug-25 09:29N 33°03' E 167°11'4 0.8 25.5
2014-Aug-25 04:22N 32°59' E 167°10'228.8 25.8
2014-Aug-25 04:17N 32°57' E 167°10'0 0.0 25.8
2014-Aug-25 02:08N 32°57' E 167°10'3 1.1 25.8
2014-Aug-24 23:07N 32°54' E 167°12'1 1.3 25.9
2014-Aug-24 22:14N 32°53' E 167°13'3 1.3 25.9
2014-Aug-24 19:44N 32°51' E 167°16'0 0.0 25.9
2014-Aug-24 18:05N 32°51' E 167°16'2 1.8 25.9
2014-Aug-24 17:07N 32°50' E 167°18'0 0.0 25.9
2014-Aug-24 14:47N 32°50' E 167°18'1 0.2 26.0
2014-Aug-24 09:49N 32°49' E 167°19'4 2.6 26.1
2014-Aug-24 08:10N 32°45' E 167°21'0 0.0 26.1
2014-Aug-24 04:43N 32°45' E 167°21'4 1.0 26.1
2014-Aug-24 00:33N 32°43' E 167°26'0 0.0
2014-Aug-24 00:13N 32°43' E 167°26'4 0.7 26.0
2014-Aug-23 19:12N 32°42' E 167°30'1 2.1 26.0
2014-Aug-23 18:38N 32°42' E 167°31'2 1.2 26.1
2014-Aug-23 16:57N 32°43' E 167°34'0 0.0 26.2
2014-Aug-23 16:35N 32°43' E 167°34'0 0.0 26.2
2014-Aug-23 14:57N 32°43' E 167°34'2 0.4 26.2
2014-Aug-23 10:13N 32°44' E 167°35'3 1.7 26.3
2014-Aug-23 08:30N 32°42' E 167°33'0 0.0 26.4
2014-Aug-23 06:51N 32°42' E 167°33'0 0.0 26.4
2014-Aug-23 03:10N 32°42' E 167°33'218.5 26.5
2014-Aug-23 03:05N 32°42' E 167°35'0 0.0 26.5
2014-Aug-23 02:29N 32°42' E 167°35'1 0.3 26.4
2014-Aug-22 22:57N 32°41' E 167°34'1 0.3 26.2
2014-Aug-22 21:08N 32°42' E 167°34'1 0.4 26.2
2014-Aug-22 19:36N 32°42' E 167°33'0 1.0 26.1
2014-Aug-22 19:10N 32°42' E 167°34'0 0.3 26.1
2014-Aug-22 17:30N 32°42' E 167°33'210.6 26.2
2014-Aug-22 17:20N 32°43' E 167°31'0 0.1 26.2
2014-Aug-22 15:10N 32°43' E 167°31'2 0.5 26.2
2014-Aug-22 09:44N 32°41' E 167°29'0 0.0 26.3
2014-Aug-22 08:50N 32°41' E 167°29'126.3 26.3
2014-Aug-22 08:47N 32°41' E 167°27'0 0.0 26.3
2014-Aug-22 06:17N 32°41' E 167°27'1 0.5 26.4
2014-Aug-22 03:19N 32°39' E 167°26'1 1.2 26.4
2014-Aug-22 02:34N 32°39' E 167°25'1 0.4 26.4
2014-Aug-22 00:56N 32°39' E 167°25'1 0.2 26.3
2014-Aug-21 21:35N 32°39' E 167°24'3 0.8 26.1
2014-Aug-21 18:20N 32°37' E 167°21'1 3.2 26.1
2014-Aug-21 17:58N 32°37' E 167°23'1 3.9 26.1
2014-Aug-21 17:40N 32°37' E 167°21'1 0.6 26.1
2014-Aug-21 15:21N 32°36' E 167°21'2 0.5 26.1
2014-Aug-21 10:51N 32°34' E 167°21'0 0.6 26.1
2014-Aug-21 10:05N 32°33' E 167°21'0 0.4 26.1
2014-Aug-21 09:11N 32°33' E 167°21'115.7 26.1
2014-Aug-21 09:08N 32°32' E 167°21'0 0.1 26.1
2014-Aug-21 05:10N 32°32' E 167°21'1 0.9 26.2
2014-Aug-21 04:19N 32°31' E 167°22'0 0.0 26.2
2014-Aug-21 02:50N 32°31' E 167°22'0 1.0 26.2
2014-Aug-21 02:47N 32°31' E 167°22'0 0.1 26.2
2014-Aug-21 01:08N 32°31' E 167°22'   26.1
Track history (hours):
 
Tides and Currents Weather Stations Pressure Air Temp Water Temp Dewpoint Dewpoint Depression Visibility Wind Speed Wind Dir Waves Ship Positions

Drifting buoy 51940

Last reported at 2014-Aug-31 03:15 UTC. Time now 2014-Aug-31 04:33 UTC.
Position N 33°39' E 168°29'.

Water temperature 27.3 ° C

Date/timePositionNaut miles runAvg speedWind from/ knotsBaromVisibWave heightAir tempDewpointWater temp
2014-Aug-31 03:15N 33°39' E 168°29'4 1.7 27.3
2014-Aug-31 00:55N 33°39' E 168°24'0 0.0 27.0
2014-Aug-30 22:41N 33°39' E 168°24'3 3.1 26.7
2014-Aug-30 21:49N 33°39' E 168°21'0 0.0 26.6
2014-Aug-30 18:17N 33°39' E 168°21'1 1.9 26.4
2014-Aug-30 17:40N 33°39' E 168°19'1 0.8 26.4
2014-Aug-30 15:54N 33°38' E 168°18'1 0.6 26.5
2014-Aug-30 13:38N 33°38' E 168°16'1 0.6 26.5
2014-Aug-30 11:05N 33°37' E 168°14'0 0.5 26.6
2014-Aug-30 10:20N 33°37' E 168°14'1 6.2 26.6
2014-Aug-30 10:14N 33°37' E 168°13'0 0.0 26.6
2014-Aug-30 09:27N 33°37' E 168°13'3 0.5 26.7
2014-Aug-30 03:56N 33°37' E 168°10'0 0.0 26.8
2014-Aug-30 03:27N 33°37' E 168°10'0 0.0 26.8
2014-Aug-30 02:51N 33°37' E 168°10'370.0 26.8
2014-Aug-30 02:48N 33°37' E 168°06'0 0.0 26.8
2014-Aug-30 01:07N 33°37' E 168°06'4 1.6 26.7
2014-Aug-29 22:59N 33°36' E 168°02'0 0.0 26.6
2014-Aug-29 18:47N 33°36' E 168°02'3 8.9 26.4
2014-Aug-29 18:25N 33°34' E 167°58'0 0.0 26.4
2014-Aug-29 17:50N 33°34' E 167°58'0 0.0 26.4
2014-Aug-29 17:05N 33°34' E 167°58'0 0.2
2014-Aug-29 16:07N 33°34' E 167°59'0 0.0 26.4
2014-Aug-29 15:32N 33°34' E 167°59'1 0.6 26.4
2014-Aug-29 13:50N 33°33' E 167°58'319.3 26.4
2014-Aug-29 13:42N 33°32' E 167°55'0 0.0 26.4
2014-Aug-29 10:34N 33°32' E 167°55'0 0.1
2014-Aug-29 09:49N 33°32' E 167°55'2 0.9 26.5
2014-Aug-29 08:05N 33°32' E 167°53'1 0.5 26.5
2014-Aug-29 05:20N 33°31' E 167°52'0 0.0 26.6
2014-Aug-29 04:20N 33°31' E 167°52'135.0 26.6
2014-Aug-29 04:19N 33°32' E 167°52'0 0.0 26.6
2014-Aug-29 03:37N 33°32' E 167°52'0 0.0 26.6
2014-Aug-29 03:03N 33°32' E 167°52'111.7 26.6
2014-Aug-29 02:58N 33°31' E 167°51'0 0.0 26.6
2014-Aug-29 01:21N 33°31' E 167°51'231.0
2014-Aug-29 01:18N 33°31' E 167°49'0 0.0 26.5
2014-Aug-28 23:23N 33°31' E 167°49'5 1.0 26.4
2014-Aug-28 18:51N 33°30' E 167°43'0 0.0 26.2
2014-Aug-28 18:03N 33°30' E 167°43'1 0.7 26.2
2014-Aug-28 16:19N 33°29' E 167°42'1 0.9 26.3
2014-Aug-28 15:43N 33°29' E 167°42'1 0.5 26.3
2014-Aug-28 14:00N 33°28' E 167°42'1 0.3 26.3
2014-Aug-28 10:08N 33°27' E 167°42'2 1.5 26.3
2014-Aug-28 08:29N 33°27' E 167°39'1 0.6 26.3
2014-Aug-28 06:28N 33°27' E 167°37'0 0.0 26.3
2014-Aug-28 06:22N 33°27' E 167°37'0 0.0 26.3
2014-Aug-28 05:32N 33°27' E 167°37'0 0.0 26.3
2014-Aug-28 04:47N 33°27' E 167°37'1 1.2 26.4
2014-Aug-28 03:47N 33°28' E 167°36'3 5.4 26.3
2014-Aug-28 03:11N 33°26' E 167°32'0 0.0 26.4
2014-Aug-28 01:28N 33°26' E 167°32'3 1.7 26.3
2014-Aug-27 23:41N 33°25' E 167°29'0 0.0 26.1
2014-Aug-27 22:50N 33°25' E 167°29'0 0.0 26.0
2014-Aug-27 21:58N 33°25' E 167°29'0 0.0 25.9
2014-Aug-27 21:08N 33°25' E 167°29'1 0.3 25.9
2014-Aug-27 18:14N 33°24' E 167°28'113.4 25.8
2014-Aug-27 18:11N 33°24' E 167°28'0 0.0 25.8
2014-Aug-27 16:30N 33°24' E 167°28'1 1.6 25.8
2014-Aug-27 15:50N 33°24' E 167°27'0 0.0
2014-Aug-27 14:10N 33°24' E 167°27'2 0.5 25.8
2014-Aug-27 10:27N 33°23' E 167°25'1 1.0 25.8
2014-Aug-27 09:41N 33°22' E 167°24'1 1.8 25.8
2014-Aug-27 08:50N 33°22' E 167°22'1 0.3 25.8
2014-Aug-27 06:49N 33°21' E 167°22'2 1.5 25.8
2014-Aug-27 05:41N 33°21' E 167°19'0 0.0 25.8
2014-Aug-27 04:05N 33°21' E 167°19'0 0.7 25.8
2014-Aug-27 03:23N 33°21' E 167°19'2 1.0 25.8
2014-Aug-27 01:44N 33°21' E 167°17'247.7
2014-Aug-27 01:41N 33°19' E 167°15'2 0.4 25.8
2014-Aug-26 21:30N 33°18' E 167°14'2 0.7 25.5
2014-Aug-26 18:41N 33°16' E 167°12'1 4.2 25.4
2014-Aug-26 18:22N 33°15' E 167°12'0 0.0 25.3
2014-Aug-26 17:05N 33°15' E 167°12'0 0.0 25.3
2014-Aug-26 16:41N 33°15' E 167°12'1 6.2 25.4
2014-Aug-26 16:35N 33°14' E 167°12'0 0.0
2014-Aug-26 16:05N 33°14' E 167°12'0 0.0 25.4
2014-Aug-26 14:20N 33°14' E 167°12'1 0.3 25.4
2014-Aug-26 10:47N 33°14' E 167°11'1 0.8 25.4
2014-Aug-26 10:04N 33°13' E 167°10'117.8 25.4
2014-Aug-26 10:00N 33°12' E 167°10'0 0.0 25.4
2014-Aug-26 09:10N 33°12' E 167°10'4 0.8 25.5
2014-Aug-26 04:11N 33°09' E 167°07'0 0.0 25.7
2014-Aug-26 03:54N 33°09' E 167°07'0 0.0 25.7
2014-Aug-26 01:56N 33°09' E 167°07'222.3 25.7
2014-Aug-26 01:51N 33°07' E 167°07'1 0.3 25.7
2014-Aug-25 22:43N 33°06' E 167°08'1 1.2 25.6
2014-Aug-25 21:54N 33°06' E 167°08'229.4 25.5
2014-Aug-25 21:50N 33°04' E 167°09'0 0.0 25.5
2014-Aug-25 19:16N 33°04' E 167°09'1 1.1 25.5
2014-Aug-25 18:25N 33°03' E 167°10'0 0.0 25.5
2014-Aug-25 17:34N 33°03' E 167°10'1 1.0 25.5
2014-Aug-25 16:12N 33°03' E 167°12'0 0.0 25.5
2014-Aug-25 11:08N 33°03' E 167°12'0 0.3 25.5
2014-Aug-25 09:29N 33°03' E 167°11'4 0.8 25.5
2014-Aug-25 04:22N 32°59' E 167°10'228.8 25.8
2014-Aug-25 04:17N 32°57' E 167°10'0 0.0 25.8
2014-Aug-25 02:08N 32°57' E 167°10'3 1.1 25.8
2014-Aug-24 23:07N 32°54' E 167°12'1 1.3 25.9
2014-Aug-24 22:14N 32°53' E 167°13'3 1.3 25.9
2014-Aug-24 19:44N 32°51' E 167°16'0 0.0 25.9
2014-Aug-24 18:05N 32°51' E 167°16'2 1.8 25.9
2014-Aug-24 17:07N 32°50' E 167°18'0 0.0 25.9
2014-Aug-24 14:47N 32°50' E 167°18'1 0.2 26.0
2014-Aug-24 09:49N 32°49' E 167°19'4 2.6 26.1
2014-Aug-24 08:10N 32°45' E 167°21'0 0.0 26.1
2014-Aug-24 04:43N 32°45' E 167°21'4 1.0 26.1
2014-Aug-24 00:33N 32°43' E 167°26'0 0.0
2014-Aug-24 00:13N 32°43' E 167°26'4 0.7 26.0
2014-Aug-23 19:12N 32°42' E 167°30'1 2.1 26.0
2014-Aug-23 18:38N 32°42' E 167°31'2 1.2 26.1
2014-Aug-23 16:57N 32°43' E 167°34'0 0.0 26.2
2014-Aug-23 16:35N 32°43' E 167°34'0 0.0 26.2
2014-Aug-23 14:57N 32°43' E 167°34'2 0.4 26.2
2014-Aug-23 10:13N 32°44' E 167°35'3 1.7 26.3
2014-Aug-23 08:30N 32°42' E 167°33'0 0.0 26.4
2014-Aug-23 06:51N 32°42' E 167°33'0 0.0 26.4
2014-Aug-23 03:10N 32°42' E 167°33'218.5 26.5
2014-Aug-23 03:05N 32°42' E 167°35'0 0.0 26.5
2014-Aug-23 02:29N 32°42' E 167°35'1 0.3 26.4
2014-Aug-22 22:57N 32°41' E 167°34'1 0.3 26.2
2014-Aug-22 21:08N 32°42' E 167°34'1 0.4 26.2
2014-Aug-22 19:36N 32°42' E 167°33'0 1.0 26.1
2014-Aug-22 19:10N 32°42' E 167°34'0 0.3 26.1
2014-Aug-22 17:30N 32°42' E 167°33'210.6 26.2
2014-Aug-22 17:20N 32°43' E 167°31'0 0.1 26.2
2014-Aug-22 15:10N 32°43' E 167°31'2 0.5 26.2
2014-Aug-22 09:44N 32°41' E 167°29'0 0.0 26.3
2014-Aug-22 08:50N 32°41' E 167°29'126.3 26.3
2014-Aug-22 08:47N 32°41' E 167°27'0 0.0 26.3
2014-Aug-22 06:17N 32°41' E 167°27'1 0.5 26.4
2014-Aug-22 03:19N 32°39' E 167°26'1 1.2 26.4
2014-Aug-22 02:34N 32°39' E 167°25'1 0.4 26.4
2014-Aug-22 00:56N 32°39' E 167°25'1 0.2 26.3
2014-Aug-21 21:35N 32°39' E 167°24'3 0.8 26.1
2014-Aug-21 18:20N 32°37' E 167°21'1 3.2 26.1
2014-Aug-21 17:58N 32°37' E 167°23'1 3.9 26.1
2014-Aug-21 17:40N 32°37' E 167°21'1 0.6 26.1
2014-Aug-21 15:21N 32°36' E 167°21'2 0.5 26.1
2014-Aug-21 10:51N 32°34' E 167°21'0 0.6 26.1
2014-Aug-21 10:05N 32°33' E 167°21'0 0.4 26.1
2014-Aug-21 09:11N 32°33' E 167°21'115.7 26.1
2014-Aug-21 09:08N 32°32' E 167°21'0 0.1 26.1
2014-Aug-21 05:10N 32°32' E 167°21'1 0.9 26.2
2014-Aug-21 04:19N 32°31' E 167°22'0 0.0 26.2
2014-Aug-21 02:50N 32°31' E 167°22'0 1.0 26.2
2014-Aug-21 02:47N 32°31' E 167°22'0 0.1 26.2
2014-Aug-21 01:08N 32°31' E 167°22'   26.1

Dump ship's entire track history